Orbital elements of CZ-4 DEB
| Launched | 2 September 1990 |
| Flight ended | – |
| Launch site | Taiyuan Space Center, PRC |
| Owner | People's Republic of China |
| NORAD ID | 20866 |
| Date fetched |
Epoch osculation |
Inc. [°] |
Ecc. | RA asc node [hr] |
Arg Peri. [°] |
Mean anom [°] |
Mean motion [rev/day] |
Abs. mag |
| Date fetched |
Epoch osculation |
Inc. [°] |
Ecc. | RA asc node [hr] |
Arg Peri. [°] |
Mean anom [°] |
Mean motion [rev/day] |
Abs. mag |
| 2026 May 05 17:57 | 2026 May 05 10:54:26 | 98.9387 | 0.00703 | 7.0526 | 71.5901 | 57.1008 | 14.09236 | – |
| 2026 May 04 17:57 | 2026 Apr 30 11:35:51 | 98.9381 | 0.00704 | 6.7237 | 85.3091 | 57.1008 | 14.09236 | – |
| 2026 May 03 17:57 | 2026 Apr 30 11:35:51 | 98.9381 | 0.00704 | 6.7237 | 85.3091 | 57.1008 | 14.09236 | – |
| 2026 May 02 17:57 | 2026 Apr 30 11:35:51 | 98.9381 | 0.00704 | 6.7237 | 85.3091 | 57.1008 | 14.09236 | – |
| 2026 May 01 17:56 | 2026 Apr 30 11:35:51 | 98.9381 | 0.00704 | 6.7237 | 85.3091 | 57.1008 | 14.09236 | – |
| 2026 Apr 30 17:56 | 2026 Apr 30 11:35:51 | 98.9381 | 0.00704 | 6.7237 | 85.3091 | 57.1008 | 14.09236 | – |
| 2026 Apr 29 17:57 | 2026 Apr 24 12:28:39 | 98.9377 | 0.00703 | 6.3293 | 101.8175 | 57.1008 | 14.09236 | – |
| 2026 Apr 28 17:56 | 2026 Apr 24 12:28:39 | 98.9377 | 0.00703 | 6.3293 | 101.8175 | 57.1008 | 14.09236 | – |
| 2026 Apr 27 17:58 | 2026 Apr 24 12:28:39 | 98.9377 | 0.00703 | 6.3293 | 101.8175 | 57.1008 | 14.09236 | – |
| 2026 Apr 26 17:58 | 2026 Apr 24 12:28:39 | 98.9377 | 0.00703 | 6.3293 | 101.8175 | 57.1008 | 14.09236 | – |
| 2026 Apr 25 17:58 | 2026 Apr 24 12:28:39 | 98.9377 | 0.00703 | 6.3293 | 101.8175 | 57.1008 | 14.09236 | – |
| 2026 Apr 24 17:59 | 2026 Apr 24 12:28:39 | 98.9377 | 0.00703 | 6.3293 | 101.8175 | 57.1008 | 14.09236 | – |
| 2026 Apr 23 17:57 | 2026 Apr 17 21:33:01 | 98.9374 | 0.00700 | 5.8912 | 120.1569 | 57.1008 | 14.09236 | – |
| 2026 Apr 22 17:57 | 2026 Apr 17 21:33:01 | 98.9374 | 0.00700 | 5.8912 | 120.1569 | 57.1008 | 14.09236 | – |
| 2026 Apr 21 17:57 | 2026 Apr 17 21:33:01 | 98.9374 | 0.00700 | 5.8912 | 120.1569 | 57.1008 | 14.09236 | – |
| 2026 Apr 20 17:57 | 2026 Apr 17 21:33:01 | 98.9374 | 0.00700 | 5.8912 | 120.1569 | 57.1008 | 14.09236 | – |
| 2026 Apr 19 17:58 | 2026 Apr 17 21:33:01 | 98.9374 | 0.00700 | 5.8912 | 120.1569 | 57.1008 | 14.09236 | – |
| 2026 Apr 18 17:56 | 2026 Apr 13 05:01:45 | 98.9369 | 0.00699 | 5.5811 | 133.1811 | 57.1008 | 14.09236 | – |
| 2026 Apr 16 17:57 | 2026 Apr 13 05:01:45 | 98.9369 | 0.00699 | 5.5811 | 133.1811 | 57.1008 | 14.09236 | – |
| 2026 Apr 14 17:57 | 2026 Apr 13 05:01:45 | 98.9369 | 0.00699 | 5.5811 | 133.1811 | 57.1008 | 14.09236 | – |
| 2026 Apr 13 17:57 | 2026 Apr 13 05:01:45 | 98.9369 | 0.00699 | 5.5811 | 133.1811 | 57.1008 | 14.09236 | – |
| 2026 Apr 12 17:57 | 2026 Apr 08 09:47:52 | 98.9366 | 0.00696 | 5.2636 | 146.5747 | 57.1008 | 14.09236 | – |
| 2026 Apr 11 17:57 | 2026 Apr 08 09:47:52 | 98.9366 | 0.00696 | 5.2636 | 146.5747 | 57.1008 | 14.09236 | – |
| 2026 Apr 10 17:58 | 2026 Apr 08 09:47:52 | 98.9366 | 0.00696 | 5.2636 | 146.5747 | 57.1008 | 14.09236 | – |
| 2026 Apr 09 18:01 | 2026 Apr 08 09:47:52 | 98.9366 | 0.00696 | 5.2636 | 146.5747 | 57.1008 | 14.09236 | – |
| 2026 Apr 08 17:57 | 2026 Apr 08 09:47:52 | 98.9366 | 0.00696 | 5.2636 | 146.5747 | 57.1008 | 14.09236 | – |